createdAt,value
2018-04-15T00:00:17.958Z,4.93
2018-04-15T00:02:51.426Z,4.90
2018-04-15T00:05:29.282Z,5.10
2018-04-15T00:08:11.783Z,4.60
2018-04-15T00:10:44.503Z,4.60
2018-04-15T00:13:16.809Z,5.60
2018-04-15T00:15:49.755Z,4.47
2018-04-15T00:18:23.063Z,4.50
2018-04-15T00:20:59.466Z,4.67
2018-04-15T00:23:32.747Z,4.70
2018-04-15T00:26:05.174Z,4.30
2018-04-15T00:28:43.007Z,4.20
2018-04-15T00:31:16.213Z,4.87
2018-04-15T00:33:48.871Z,4.40
2018-04-15T00:36:26.044Z,4.27
2018-04-15T00:38:58.407Z,4.00
2018-04-15T00:41:31.914Z,4.10
2018-04-15T00:44:07.170Z,4.17
2018-04-15T00:46:40.799Z,4.13
2018-04-15T00:49:14.219Z,4.20
2018-04-15T00:51:46.776Z,4.50
2018-04-15T00:54:20.799Z,4.00
2018-04-15T00:56:54.141Z,3.40
2018-04-15T00:59:28.551Z,3.73
2018-04-15T01:02:00.966Z,3.97
2018-04-15T01:04:39.050Z,4.00
2018-04-15T01:07:11.822Z,3.77
2018-04-15T01:09:44.376Z,3.30
2018-04-15T01:12:18.546Z,3.80
2018-04-15T01:14:56.701Z,3.30
2018-04-15T01:17:31.024Z,3.97
2018-04-15T01:20:05.196Z,4.10
2018-04-15T01:22:40.889Z,3.50
2018-04-15T01:25:13.576Z,3.90
2018-04-15T01:27:48.219Z,4.10
2018-04-15T01:30:21.578Z,4.20
2018-04-15T01:32:57.186Z,3.60
2018-04-15T01:35:30.576Z,3.70
2018-04-15T01:38:12.695Z,3.60
2018-04-15T01:40:45.203Z,4.10
2018-04-15T01:43:17.882Z,3.30
2018-04-15T01:45:59.206Z,3.50
2018-04-15T01:48:31.564Z,3.60
2018-04-15T01:51:12.454Z,3.80
2018-04-15T01:53:46.106Z,3.83
2018-04-15T01:56:29.106Z,4.10
2018-04-15T01:59:02.527Z,3.70
2018-04-15T02:01:42.229Z,4.03
2018-04-15T02:07:22.353Z,3.77
2018-04-15T02:09:56.040Z,3.80
2018-04-15T02:12:32.244Z,4.00
2018-04-15T02:15:06.008Z,4.20
2018-04-15T02:17:39.559Z,5.03
2018-04-15T02:23:01.481Z,4.03
2018-04-15T02:25:38.303Z,4.47
2018-04-15T02:28:17.908Z,4.40
2018-04-15T02:30:52.887Z,3.73
2018-04-15T02:36:05.106Z,3.60
2018-04-15T02:38:37.609Z,3.83
2018-04-15T02:41:12.723Z,3.53
2018-04-15T02:43:45.540Z,3.00
2018-04-15T02:46:20.575Z,3.13
2018-04-15T02:48:56.690Z,3.30
2018-04-15T02:51:29.471Z,3.23
2018-04-15T02:54:06.776Z,3.47
2018-04-15T02:56:44.753Z,3.30
2018-04-15T02:59:17.290Z,3.57
2018-04-15T03:01:51.455Z,3.47
2018-04-15T03:04:23.975Z,3.43
2018-04-15T03:06:56.666Z,3.20
2018-04-15T03:09:31.151Z,3.93
2018-04-15T03:12:05.550Z,3.60
2018-04-15T03:14:42.170Z,3.00
2018-04-15T03:17:15.788Z,3.50
2018-04-15T03:19:49.344Z,3.17
2018-04-15T03:22:21.768Z,3.53
2018-04-15T03:24:54.235Z,3.60
2018-04-15T03:27:28.059Z,3.10
2018-04-15T03:30:00.637Z,3.27
2018-04-15T03:32:33.158Z,2.90
2018-04-15T03:35:07.266Z,2.93
2018-04-15T03:37:40.477Z,3.20
2018-04-15T03:40:12.916Z,2.70
2018-04-15T03:42:50.810Z,3.37
2018-04-15T03:45:32.792Z,2.60
2018-04-15T03:48:07.266Z,2.70
2018-04-15T03:50:40.668Z,2.20
2018-04-15T03:53:13.989Z,2.40
2018-04-15T03:55:47.371Z,2.50
2018-04-15T03:58:20.826Z,2.07
2018-04-15T04:00:53.197Z,2.53
2018-04-15T04:03:25.606Z,2.30
2018-04-15T04:05:57.975Z,2.47
2018-04-15T04:08:31.330Z,2.70
2018-04-15T04:11:03.958Z,2.37
2018-04-15T04:13:38.373Z,2.50
2018-04-15T04:16:10.740Z,2.50
2018-04-15T04:18:55.530Z,2.30
2018-04-15T04:21:40.079Z,2.40
2018-04-15T04:24:24.605Z,2.47
2018-04-15T04:26:56.974Z,2.70
2018-04-15T04:29:30.134Z,2.63
2018-04-15T04:32:02.422Z,2.30
2018-04-15T04:34:34.838Z,2.30
2018-04-15T04:37:07.204Z,2.10
2018-04-15T04:39:39.970Z,2.30
2018-04-15T04:42:12.501Z,2.30
2018-04-15T04:44:44.918Z,2.50
2018-04-15T04:47:17.442Z,1.93
2018-04-15T04:49:49.979Z,2.23
2018-04-15T04:52:23.258Z,2.57
2018-04-15T04:54:55.718Z,2.37
2018-04-15T04:57:28.278Z,2.80
2018-04-15T05:00:00.847Z,2.33
2018-04-15T05:02:33.267Z,2.43
2018-04-15T05:05:06.435Z,2.47
2018-04-15T05:07:38.748Z,2.50
2018-04-15T05:10:11.230Z,2.20
2018-04-15T05:12:44.284Z,2.97
2018-04-15T05:15:16.742Z,3.10
2018-04-15T05:17:49.045Z,2.90
2018-04-15T05:20:21.378Z,3.63
2018-04-15T05:22:54.446Z,4.20
2018-04-15T05:25:27.060Z,3.13
2018-04-15T05:27:59.511Z,3.60
2018-04-15T05:30:31.954Z,3.40
2018-04-15T05:33:04.354Z,3.17
2018-04-15T05:35:36.854Z,3.33
2018-04-15T05:38:09.336Z,2.97
2018-04-15T05:40:41.759Z,3.60
2018-04-15T05:43:14.074Z,3.47
2018-04-15T05:45:47.268Z,3.20
2018-04-15T05:48:19.695Z,3.10
2018-04-15T05:50:52.055Z,3.10
2018-04-15T05:53:24.550Z,3.17
2018-04-15T05:55:56.960Z,3.13
2018-04-15T05:58:29.447Z,2.80
2018-04-15T06:01:02.795Z,2.60
2018-04-15T06:03:35.063Z,2.70
2018-04-15T06:06:07.450Z,2.70
2018-04-15T06:08:39.730Z,2.53
2018-04-15T06:11:12.354Z,2.40
2018-04-15T06:13:44.622Z,2.47
2018-04-15T06:16:17.692Z,2.80
2018-04-15T06:18:50.782Z,2.53
2018-04-15T06:21:23.369Z,2.43
2018-04-15T06:23:55.766Z,2.40
2018-04-15T06:26:28.199Z,2.70
2018-04-15T06:29:01.346Z,2.40
2018-04-15T06:31:33.974Z,2.90
2018-04-15T06:34:06.518Z,2.37
2018-04-15T06:36:39.033Z,2.50
2018-04-15T06:39:11.387Z,3.00
2018-04-15T06:41:43.954Z,2.30
2018-04-15T06:44:16.414Z,2.70
2018-04-15T06:46:48.955Z,2.60
2018-04-15T06:49:21.962Z,2.57
2018-04-15T06:51:55.267Z,2.97
2018-04-15T06:54:27.593Z,2.67
2018-04-15T06:57:00.027Z,2.57
2018-04-15T06:59:32.554Z,2.50
2018-04-15T07:02:05.083Z,3.13
2018-04-15T07:04:37.601Z,2.67
2018-04-15T07:07:09.924Z,2.70
2018-04-15T07:09:42.244Z,2.67
2018-04-15T07:12:14.694Z,2.93
2018-04-15T07:14:47.909Z,2.50
2018-04-15T07:17:20.346Z,2.23
2018-04-15T07:19:53.594Z,2.67
2018-04-15T07:22:25.998Z,2.83
2018-04-15T07:24:59.034Z,2.37
2018-04-15T07:27:32.226Z,2.63
2018-04-15T07:30:04.595Z,2.30
2018-04-15T07:32:37.057Z,2.87
2018-04-15T07:35:09.518Z,2.27
2018-04-15T07:37:41.966Z,2.70
2018-04-15T07:40:14.238Z,2.53
2018-04-15T07:42:46.570Z,2.60
2018-04-15T07:45:18.903Z,2.47
2018-04-15T07:47:51.270Z,2.30
2018-04-15T07:50:23.779Z,2.50
2018-04-15T07:52:56.667Z,2.23
2018-04-15T07:55:34.486Z,2.10
2018-04-15T07:58:07.818Z,2.23
2018-04-15T08:00:44.454Z,3.10
2018-04-15T08:03:17.510Z,2.20
2018-04-15T08:05:55.870Z,2.83
2018-04-15T08:08:29.847Z,2.40
2018-04-15T08:11:06.054Z,2.33
2018-04-15T08:13:38.600Z,2.57
2018-04-15T08:16:15.842Z,2.50
2018-04-15T08:18:51.046Z,2.37
2018-04-15T08:21:23.386Z,2.30
2018-04-15T08:23:58.170Z,2.40
2018-04-15T08:26:30.569Z,2.80
2018-04-15T08:29:04.898Z,2.20
2018-04-15T08:31:38.533Z,2.70
2018-04-15T08:34:16.743Z,3.10
2018-04-15T08:36:49.215Z,2.90
2018-04-15T08:39:22.011Z,2.50
2018-04-15T08:41:56.326Z,2.77
2018-04-15T08:44:34.857Z,2.60
2018-04-15T08:47:15.102Z,3.40
2018-04-15T08:49:49.603Z,3.30
2018-04-15T08:52:22.785Z,3.07
2018-04-15T08:54:57.310Z,3.20
2018-04-15T08:57:29.615Z,3.30
2018-04-15T09:00:01.949Z,2.83
2018-04-15T09:02:35.470Z,2.93
2018-04-15T09:05:08.994Z,3.13
2018-04-15T09:07:41.478Z,2.90
2018-04-15T09:10:16.634Z,2.70
2018-04-15T09:12:51.875Z,2.50
2018-04-15T09:15:25.065Z,2.47
2018-04-15T09:17:57.579Z,2.87
2018-04-15T09:20:31.010Z,2.87
2018-04-15T09:23:05.519Z,2.40
2018-04-15T09:25:38.742Z,2.30
2018-04-15T09:28:18.457Z,2.50
2018-04-15T09:30:57.026Z,2.10
2018-04-15T09:33:30.044Z,2.70
2018-04-15T09:36:02.793Z,2.37
2018-04-15T09:38:36.403Z,2.20
2018-04-15T09:41:10.078Z,2.20
2018-04-15T09:43:42.364Z,2.33
2018-04-15T09:46:15.054Z,2.77
2018-04-15T09:48:47.759Z,2.53
2018-04-15T09:51:21.471Z,3.03
2018-04-15T09:53:56.607Z,3.17
2018-04-15T09:56:30.961Z,2.50
2018-04-15T09:59:03.632Z,2.93
2018-04-15T10:01:36.303Z,2.73
2018-04-15T10:04:08.746Z,2.87
2018-04-15T10:06:42.066Z,2.73
2018-04-15T10:09:21.758Z,3.80
2018-04-15T10:11:55.986Z,3.33
2018-04-15T10:14:30.414Z,2.83
2018-04-15T10:17:03.826Z,2.97
2018-04-15T10:19:38.237Z,2.67
2018-04-15T10:22:20.526Z,2.63
2018-04-15T10:24:53.719Z,2.73
2018-04-15T10:27:27.262Z,3.07
2018-04-15T10:30:00.823Z,2.57
2018-04-15T10:32:35.238Z,2.67
2018-04-15T10:35:08.827Z,2.53
2018-04-15T10:37:51.436Z,2.87
2018-04-15T10:40:23.941Z,2.47
2018-04-15T10:42:56.346Z,2.60
2018-04-15T10:45:42.296Z,2.40
2018-04-15T10:48:15.877Z,3.33
2018-04-15T10:50:50.182Z,3.30
2018-04-15T10:53:22.703Z,3.27
2018-04-15T10:55:55.150Z,3.17
2018-04-15T10:58:27.890Z,3.27
2018-04-15T11:01:01.389Z,2.90
2018-04-15T11:03:43.215Z,3.40
2018-04-15T11:06:30.370Z,3.70
2018-04-15T11:09:07.252Z,3.20
2018-04-15T11:11:40.731Z,2.53
2018-04-15T11:14:13.837Z,2.97
2018-04-15T11:16:46.412Z,3.33
2018-04-15T11:19:19.854Z,3.03
2018-04-15T11:21:57.926Z,2.70
2018-04-15T11:24:33.812Z,2.97
2018-04-15T11:27:07.426Z,2.83
2018-04-15T11:29:46.618Z,2.90
2018-04-15T11:32:19.662Z,2.40
2018-04-15T11:34:53.127Z,2.47
2018-04-15T11:37:27.620Z,2.67
2018-04-15T11:40:00.747Z,2.63
2018-04-15T11:42:33.210Z,2.87
2018-04-15T11:45:05.649Z,3.37
2018-04-15T11:47:52.378Z,2.80
2018-04-15T11:50:35.317Z,2.80
2018-04-15T11:53:09.693Z,3.03
2018-04-15T11:55:44.140Z,2.80
2018-04-15T11:58:25.113Z,2.93
2018-04-15T12:01:02.735Z,3.77
2018-04-15T12:03:36.238Z,2.10
2018-04-15T12:06:08.760Z,2.87
2018-04-15T12:08:41.404Z,2.73
2018-04-15T12:11:14.882Z,2.73
2018-04-15T12:13:48.234Z,3.33
2018-04-15T12:16:25.380Z,3.60
2018-04-15T12:19:03.655Z,2.80
2018-04-15T12:21:38.128Z,2.60
2018-04-15T12:24:20.334Z,3.43
2018-04-15T12:27:04.726Z,2.97
2018-04-15T12:29:37.264Z,3.20
2018-04-15T12:32:10.828Z,2.20
2018-04-15T12:34:48.683Z,2.13
2018-04-15T12:37:22.963Z,2.90
2018-04-15T12:39:59.710Z,8.70
2018-04-15T12:42:33.975Z,2.70
2018-04-15T12:45:06.314Z,2.70
2018-04-15T12:47:39.738Z,5.30
2018-04-15T12:50:12.275Z,2.87
2018-04-15T12:52:50.695Z,2.70
2018-04-15T12:55:25.067Z,3.10
2018-04-15T12:57:57.677Z,2.90
2018-04-15T13:00:32.171Z,2.90
2018-04-15T13:03:08.902Z,2.40
2018-04-15T13:05:43.962Z,2.80
2018-04-15T13:08:16.354Z,2.13
2018-04-15T13:10:50.872Z,2.50
2018-04-15T13:13:28.085Z,3.47
2018-04-15T13:16:03.857Z,2.90
2018-04-15T13:18:40.023Z,2.77
2018-04-15T13:21:14.678Z,2.23
2018-04-15T13:23:52.975Z,1.83
2018-04-15T13:26:25.998Z,2.00
2018-04-15T13:29:14.203Z,2.40
2018-04-15T13:31:46.719Z,2.23
2018-04-15T13:34:21.455Z,2.20
2018-04-15T13:36:55.581Z,2.50
2018-04-15T13:39:29.727Z,1.70
2018-04-15T13:42:03.253Z,1.97
2018-04-15T13:44:35.719Z,1.50
2018-04-15T13:47:08.092Z,1.50
2018-04-15T13:49:41.737Z,1.40
2018-04-15T13:52:15.294Z,1.33
2018-04-15T13:54:53.606Z,1.60
2018-04-15T13:57:25.909Z,1.30
2018-04-15T14:00:08.493Z,1.23
2018-04-15T14:02:40.922Z,1.97
2018-04-15T14:05:55.208Z,1.70
2018-04-15T14:08:30.903Z,1.90
2018-04-15T14:11:13.528Z,2.33
2018-04-15T14:13:46.008Z,1.83
2018-04-15T14:16:18.416Z,2.60
2018-04-15T14:18:50.946Z,1.97
2018-04-15T14:21:24.622Z,1.80
2018-04-15T14:23:57.091Z,1.90
2018-04-15T14:26:29.675Z,1.87
2018-04-15T14:29:03.115Z,1.80
2018-04-15T14:31:40.071Z,1.90
2018-04-15T14:34:12.427Z,1.50
2018-04-15T14:36:47.678Z,2.10
2018-04-15T14:39:20.290Z,2.13
2018-04-15T14:41:55.507Z,2.30
2018-04-15T14:44:29.074Z,1.93
2018-04-15T14:47:06.578Z,2.03
2018-04-15T14:49:38.937Z,1.60
2018-04-15T14:52:17.440Z,1.40
2018-04-15T14:54:49.754Z,1.40
2018-04-15T14:57:30.635Z,1.60
2018-04-15T15:00:06.403Z,1.30
2018-04-15T15:02:39.023Z,1.80
2018-04-15T15:05:11.570Z,2.00
2018-04-15T15:07:45.951Z,1.60
2018-04-15T15:10:22.938Z,1.90
2018-04-15T15:13:01.378Z,1.80
2018-04-15T15:15:33.695Z,2.03
2018-04-15T15:18:07.358Z,1.90
2018-04-15T15:20:40.850Z,2.10
2018-04-15T15:23:13.289Z,1.93
2018-04-15T15:25:45.712Z,1.73
2018-04-15T15:28:18.237Z,2.03
2018-04-15T15:30:50.484Z,1.50
2018-04-15T15:33:24.626Z,2.10
2018-04-15T15:36:01.101Z,1.73
2018-04-15T15:38:34.458Z,1.70
2018-04-15T15:41:06.959Z,1.40
2018-04-15T15:43:41.147Z,2.43
2018-04-15T15:46:16.430Z,1.50
2018-04-15T15:48:50.300Z,1.30
2018-04-15T15:51:22.744Z,1.63
2018-04-15T15:53:55.631Z,1.40
2018-04-15T15:56:38.214Z,1.43
2018-04-15T15:59:14.406Z,1.70
2018-04-15T16:01:47.998Z,1.40
2018-04-15T16:04:21.971Z,1.50
2018-04-15T16:06:54.546Z,1.33
2018-04-15T16:09:26.951Z,1.30
2018-04-15T16:11:59.402Z,1.73
2018-04-15T16:14:32.951Z,1.20
2018-04-15T16:17:06.527Z,1.63
2018-04-15T16:19:51.019Z,1.40
2018-04-15T16:22:23.382Z,1.57
2018-04-15T16:24:56.669Z,1.77
2018-04-15T16:27:30.004Z,1.80
2018-04-15T16:30:02.440Z,1.97
2018-04-15T16:32:34.970Z,2.10
2018-04-15T16:35:07.567Z,2.20
2018-04-15T16:37:53.930Z,2.27
2018-04-15T16:40:27.425Z,2.77
2018-04-15T16:42:59.951Z,2.40
2018-04-15T16:45:32.481Z,2.47
2018-04-15T16:48:06.575Z,2.50
2018-04-15T16:50:40.990Z,2.50
2018-04-15T16:53:13.297Z,2.10
2018-04-15T16:55:47.499Z,2.10
2018-04-15T16:58:21.908Z,3.10
2018-04-15T17:00:59.631Z,2.30
2018-04-15T17:03:36.861Z,2.27
2018-04-15T17:06:10.410Z,3.27
2018-04-15T17:08:42.788Z,3.40
2018-04-15T17:11:15.324Z,3.70
2018-04-15T17:13:49.640Z,4.40
2018-04-15T17:16:22.218Z,3.97
2018-04-15T17:18:55.266Z,3.50
2018-04-15T17:21:27.955Z,3.57
2018-04-15T17:24:01.386Z,4.00
2018-04-15T17:26:39.047Z,3.50
2018-04-15T17:29:13.376Z,2.63
2018-04-15T17:31:47.054Z,3.20
2018-04-15T17:34:20.442Z,3.57
2018-04-15T17:36:55.627Z,3.00
2018-04-15T17:39:30.139Z,2.93
2018-04-15T17:42:04.161Z,3.40
2018-04-15T17:44:37.391Z,3.57
2018-04-15T17:47:31.963Z,3.97
2018-04-15T17:50:08.287Z,3.43
2018-04-15T17:52:40.678Z,3.60
2018-04-15T17:55:13.955Z,3.83
2018-04-15T17:57:47.894Z,3.47
2018-04-15T18:00:20.414Z,2.70
2018-04-15T18:03:02.620Z,3.73
2018-04-15T18:05:41.059Z,3.20
2018-04-15T18:08:17.415Z,3.60
2018-04-15T18:10:51.510Z,3.20
2018-04-15T18:13:24.034Z,4.30
2018-04-15T18:15:57.410Z,4.60
2018-04-15T18:18:32.143Z,4.10
2018-04-15T18:21:05.264Z,4.20
2018-04-15T18:23:37.662Z,3.47
2018-04-15T18:26:12.092Z,2.87
2018-04-15T18:29:01.742Z,3.17
2018-04-15T18:31:35.732Z,3.53
2018-04-15T18:34:09.945Z,3.97
2018-04-15T18:36:45.004Z,3.67
2018-04-15T18:39:17.566Z,5.17
2018-04-15T18:41:50.289Z,5.20
2018-04-15T18:44:30.348Z,4.67
2018-04-15T18:47:02.756Z,4.00
2018-04-15T18:49:36.499Z,3.93
2018-04-15T18:52:08.812Z,4.10
2018-04-15T18:54:42.447Z,4.10
2018-04-15T18:57:16.642Z,4.43
2018-04-15T18:59:49.013Z,4.07
2018-04-15T19:02:21.426Z,3.97
2018-04-15T19:04:55.607Z,4.20
2018-04-15T19:07:29.247Z,3.50
2018-04-15T19:10:01.858Z,3.87
2018-04-15T19:12:37.423Z,4.10
2018-04-15T19:15:11.096Z,4.20
2018-04-15T19:17:53.071Z,3.40
2018-04-15T19:20:25.514Z,3.10
2018-04-15T19:22:58.055Z,4.13
2018-04-15T19:25:45.356Z,3.90
2018-04-15T19:28:18.762Z,3.40
2018-04-15T19:30:51.175Z,3.77
2018-04-15T19:33:23.771Z,3.70
2018-04-15T19:35:56.899Z,3.70
2018-04-15T19:38:31.279Z,2.77
2018-04-15T19:41:05.461Z,3.37
2018-04-15T19:43:39.191Z,2.33
2018-04-15T19:46:11.698Z,2.60
2018-04-15T19:48:44.125Z,2.40
2018-04-15T19:51:17.398Z,2.40
2018-04-15T19:53:49.898Z,2.47
2018-04-15T19:56:23.162Z,2.40
2018-04-15T19:58:55.779Z,2.30
2018-04-15T20:01:33.445Z,2.13
2018-04-15T20:04:05.823Z,2.50
2018-04-15T20:06:43.055Z,2.00
2018-04-15T20:09:17.634Z,2.47
2018-04-15T20:11:50.012Z,2.13
2018-04-15T20:14:22.659Z,2.73
2018-04-15T20:16:55.372Z,2.23
2018-04-15T20:19:27.718Z,2.40
2018-04-15T20:22:01.175Z,3.00
2018-04-15T20:24:33.814Z,3.23
2018-04-15T20:27:06.999Z,3.00
2018-04-15T20:29:41.266Z,3.20
2018-04-15T20:32:13.952Z,3.17
2018-04-15T20:34:47.444Z,3.37
2018-04-15T20:37:20.769Z,2.93
2018-04-15T20:39:55.971Z,2.97
2018-04-15T20:42:28.508Z,2.60
2018-04-15T20:45:02.730Z,3.40
2018-04-15T20:47:40.742Z,3.30
2018-04-15T20:50:13.272Z,2.80
2018-04-15T20:52:46.995Z,3.00
2018-04-15T20:55:20.376Z,3.53
2018-04-15T20:57:52.930Z,2.90
2018-04-15T21:00:25.538Z,3.00
2018-04-15T21:02:59.194Z,3.03
2018-04-15T21:05:36.823Z,3.33
2018-04-15T21:08:13.287Z,2.90
2018-04-15T21:10:46.807Z,2.57
2018-04-15T21:13:19.278Z,3.17
2018-04-15T21:15:53.472Z,3.30
2018-04-15T21:18:25.998Z,3.20
2018-04-15T21:20:59.579Z,3.20
2018-04-15T21:23:35.986Z,4.00
2018-04-15T21:26:08.439Z,2.90
2018-04-15T21:28:41.050Z,3.03
2018-04-15T21:31:13.514Z,2.23
2018-04-15T21:33:46.179Z,2.23
2018-04-15T21:36:29.556Z,2.80
2018-04-15T21:39:02.022Z,2.90
2018-04-15T21:41:42.436Z,2.77
2018-04-15T21:44:17.023Z,3.03
2018-04-15T21:46:50.471Z,3.13
2018-04-15T21:49:22.978Z,3.40
2018-04-15T21:51:58.991Z,3.17
2018-04-15T21:54:31.418Z,2.80
2018-04-15T21:57:08.738Z,2.80
2018-04-15T21:59:42.401Z,3.20
2018-04-15T22:02:26.660Z,3.17
2018-04-15T22:04:59.483Z,2.70
2018-04-15T22:07:31.874Z,3.00
2018-04-15T22:10:09.938Z,2.80
2018-04-15T22:12:43.326Z,3.50
2018-04-15T22:15:16.238Z,2.73
2018-04-15T22:17:50.660Z,3.20
2018-04-15T22:20:25.410Z,3.00
2018-04-15T22:23:13.109Z,3.33
2018-04-15T22:25:45.759Z,4.40
2018-04-15T22:28:19.463Z,3.63
2018-04-15T22:30:51.931Z,4.07
2018-04-15T22:33:25.358Z,4.50
2018-04-15T22:35:59.763Z,4.87
2018-04-15T22:38:32.285Z,3.77
2018-04-15T22:41:04.679Z,3.47
2018-04-15T22:43:37.766Z,3.53
2018-04-15T22:46:11.308Z,3.30
2018-04-15T22:48:44.960Z,3.50
2018-04-15T22:51:19.397Z,3.47
2018-04-15T22:53:52.958Z,3.77
2018-04-15T22:56:26.437Z,3.53
2018-04-15T22:58:59.088Z,3.87
2018-04-15T23:01:31.802Z,3.33
2018-04-15T23:04:04.492Z,3.47
2018-04-15T23:06:37.982Z,4.23
2018-04-15T23:09:12.275Z,3.50
2018-04-15T23:11:44.597Z,3.47
2018-04-15T23:14:17.074Z,3.07
2018-04-15T23:16:50.944Z,3.33
2018-04-15T23:19:24.298Z,2.73
2018-04-15T23:21:58.267Z,2.90
2018-04-15T23:24:30.745Z,3.03
2018-04-15T23:27:06.101Z,3.10
2018-04-15T23:29:39.669Z,2.83
2018-04-15T23:32:20.212Z,2.57
2018-04-15T23:34:52.559Z,2.90
2018-04-15T23:37:25.073Z,2.53
2018-04-15T23:39:58.584Z,2.37
2018-04-15T23:42:34.351Z,2.60
2018-04-15T23:45:10.701Z,3.00
2018-04-15T23:47:43.258Z,2.43
2018-04-15T23:50:16.776Z,2.83
2018-04-15T23:52:50.514Z,3.17
2018-04-15T23:55:23.991Z,3.37
2018-04-15T23:57:56.980Z,3.23
